Tue, 26 Oct 2021 10:57:56 UTC

Information for RPM brotli-1.0.7-14.fc34.armv7hl.rpm

ID22785297
Namebrotli
Version1.0.7
Release14.fc34
Epoch
Archarmv7hl
SummaryLossless compression algorithm
DescriptionBrotli is a generic-purpose lossless compression algorithm that compresses data using a combination of a modern variant of the LZ77 algorithm, Huffman coding and 2nd order context modeling, with a compression ratio comparable to the best currently available general-purpose compression methods. It is similar in speed with deflate but offers more dense compression.
Build Time2020-08-12 01:16:19 GMT
Size317,898
e0e4d4befa457396ec4080a95b47905f
LicenseMIT
Buildrootf34-build-22132528-1880607
Provides
brotli = 1.0.7-14.fc34
brotli(armv7hl-32) = 1.0.7-14.fc34
Obsoletes No Obsoletes
Conflicts No Conflicts
Requires
ld-linux-armhf.so.3
ld-linux-armhf.so.3(GLIBC_2.4)
libbrotli(armv7hl-32) = 1.0.7-14.fc34
libc.so.6
libc.so.6(GLIBC_2.4)
libgcc_s.so.1
libgcc_s.so.1(GCC_3.5)
libm.so.6
libm.so.6(GLIBC_2.29)
rpmlib(CompressedFileNames) <= 3.0.4-1
rpmlib(FileDigests) <= 4.6.0-1
rpmlib(PayloadFilesHavePrefix) <= 4.0-1
rpmlib(PayloadIsZstd) <= 5.4.18-1
rtld(GNU_HASH)
Recommends No Recommends
Suggests No Suggests
Supplements No Supplements
Enhances No Enhances
Files
1 through 4 of 4
Name ascending sort Size
/usr/bin/brotli718,444
/usr/lib/.build-id0
/usr/lib/.build-id/200
/usr/lib/.build-id/20/c499e0ca541ab6caf7adfc26db9e08b6b5800c26
Component of
Page:
1 through 50 of 1900 >>>
Buildroot descending sort Created State
f34-build-23112028-2171655 2020-09-30 19:34:19 expired
f34-build-23111922-2171453 2020-09-30 19:16:52 expired
f34-build-23111809-2171196 2020-09-30 18:53:14 expired
f34-build-23111802-2171196 2020-09-30 18:52:18 expired
f34-build-23109775-2169788 2020-09-30 14:39:20 expired
f34-build-23109467-2169328 2020-09-30 13:41:13 expired
f34-build-23109415-2169328 2020-09-30 13:34:59 expired
f34-build-23109328-2169328 2020-09-30 13:30:00 expired
f34-build-side-30069-23109271-2169324 2020-09-30 13:16:32 expired
f34-build-23108787-2169040 2020-09-30 12:24:34 expired
f34-build-23108530-2168974 2020-09-30 11:56:54 expired
f34-build-23108511-2168974 2020-09-30 11:50:56 expired
f34-build-23108340-2168877 2020-09-30 11:24:44 expired
f34-build-23107645-2168660 2020-09-30 10:16:08 expired
f34-build-23106643-2168605 2020-09-30 09:38:40 expired
f34-build-23106599-2168605 2020-09-30 09:37:07 expired
f34-build-23104795-2168092 2020-09-30 08:13:52 expired
f34-build-23104347-2168092 2020-09-30 08:00:14 expired
f34-build-23099142-2167949 2020-09-30 05:18:13 expired
f34-build-23098142-2167803 2020-09-30 04:16:28 expired
f34-build-23098139-2167803 2020-09-30 04:16:27 expired
f34-build-23096917-2167725 2020-09-30 02:53:32 expired
f34-build-23094154-2167171 2020-09-29 23:37:16 expired
f34-build-23093494-2166979 2020-09-29 22:31:04 expired
f34-build-23093396-2166950 2020-09-29 22:20:06 expired
f34-build-23090697-2166010 2020-09-29 18:38:12 expired
f34-build-side-30069-23090685-2165983 2020-09-29 18:36:15 expired
f34-build-23090674-2165980 2020-09-29 18:33:54 expired
f34-build-side-30069-23089712-2165398 2020-09-29 16:13:15 expired
f34-build-23089551-2165397 2020-09-29 16:07:23 expired
f34-build-23089487-2165397 2020-09-29 16:02:06 expired
f34-build-23088817-2165196 2020-09-29 14:56:59 expired
f34-build-23088698-2165110 2020-09-29 14:49:38 expired
f34-build-23088686-2165110 2020-09-29 14:47:52 expired
f34-build-23088540-2165004 2020-09-29 14:35:05 expired
f34-build-23088501-2164926 2020-09-29 14:23:58 expired
f34-build-23088152-2164517 2020-09-29 13:40:47 expired
f34-build-23088134-2164517 2020-09-29 13:38:48 expired
f34-build-23088043-2164438 2020-09-29 13:25:40 expired
f34-build-23088020-2164400 2020-09-29 13:20:36 expired
f34-build-23087707-2164158 2020-09-29 12:34:22 expired
f34-build-23087549-2164158 2020-09-29 12:12:30 expired
f34-build-23087267-2163998 2020-09-29 11:33:39 expired
f34-build-23086974-2163776 2020-09-29 10:55:46 expired
f34-build-23086260-2163333 2020-09-29 09:54:30 expired
f34-build-23086058-2163240 2020-09-29 09:34:54 expired
f34-build-23085800-2162984 2020-09-29 09:06:17 expired
f34-build-side-30369-23083692-2162032 2020-09-29 06:24:42 expired
f34-build-23082689-2161797 2020-09-29 03:51:07 expired
f34-build-23082638-2161797 2020-09-29 03:47:25 expired